createdAt,value
2023-05-06T00:02:04.374Z,80.57
2023-05-06T00:05:12.964Z,79.75
2023-05-06T00:08:40.424Z,81.16
2023-05-06T00:12:08.359Z,80.48
2023-05-06T00:14:57.886Z,83.59
2023-05-06T00:18:25.583Z,82.73
2023-05-06T00:21:53.107Z,87.86
2023-05-06T00:25:01.172Z,90.15
2023-05-06T00:28:28.860Z,85.84
2023-05-06T00:31:21.685Z,82.61
2023-05-06T00:34:49.564Z,82.99
2023-05-06T00:38:17.276Z,86.98
2023-05-06T00:41:44.998Z,86.60
2023-05-06T00:45:12.589Z,87.08
2023-05-06T00:48:40.375Z,84.73
2023-05-06T00:52:08.313Z,83.65
2023-05-06T00:55:36.042Z,87.05
2023-05-06T00:58:44.447Z,90.31
2023-05-06T01:02:12.015Z,87.25
2023-05-06T01:05:39.457Z,86.33
2023-05-06T01:09:07.344Z,88.17
2023-05-06T01:12:35.308Z,92.68
2023-05-06T01:16:02.990Z,93.78
2023-05-06T01:19:30.647Z,94.02
2023-05-06T01:22:19.529Z,94.71
2023-05-06T01:25:47.024Z,95.39
2023-05-06T01:29:14.806Z,95.36
2023-05-06T01:32:42.689Z,95.87
2023-05-06T01:36:10.326Z,97.40
2023-05-06T01:39:19.364Z,97.57
2023-05-06T01:42:46.795Z,92.01
2023-05-06T01:46:14.263Z,94.48
2023-05-06T01:49:41.702Z,93.48
2023-05-06T01:52:49.767Z,97.12
2023-05-06T01:56:18.222Z,95.29
2023-05-06T01:59:28.934Z,97.74
2023-05-06T02:02:55.978Z,95.10
2023-05-06T02:06:23.537Z,97.61
2023-05-06T02:09:51.274Z,96.90
2023-05-06T02:13:18.854Z,97.49
2023-05-06T02:16:27.965Z,97.83
2023-05-06T02:19:55.403Z,98.60
2023-05-06T02:22:43.898Z,99.59
2023-05-06T02:25:51.519Z,99.96
2023-05-06T02:29:19.166Z,98.91
2023-05-06T02:32:46.861Z,96.37
2023-05-06T02:36:14.554Z,98.53
2023-05-06T02:39:42.121Z,98.64
2023-05-06T02:43:09.795Z,99.66
2023-05-06T02:46:37.570Z,99.04
2023-05-06T02:49:46.030Z,99.49
2023-05-06T02:52:54.788Z,99.93
2023-05-06T02:56:22.201Z,100.00
2023-05-06T02:59:31.350Z,98.98
2023-05-06T03:02:59.405Z,99.35
2023-05-06T03:06:27.275Z,99.95
2023-05-06T03:09:37.237Z,100.00
2023-05-06T03:13:05.211Z,100.00
2023-05-06T03:16:32.846Z,99.86
2023-05-06T03:19:41.741Z,100.00
2023-05-06T03:23:09.665Z,99.88
2023-05-06T03:26:37.477Z,100.00
2023-05-06T03:30:05.464Z,100.00
2023-05-06T03:33:33.337Z,100.00
2023-05-06T03:37:00.986Z,100.00
2023-05-06T03:40:09.260Z,100.00
2023-05-06T03:43:37.182Z,100.00
2023-05-06T03:47:04.986Z,100.00
2023-05-06T03:50:32.838Z,100.00
2023-05-06T03:53:42.194Z,100.00
2023-05-06T03:56:51.336Z,100.00
2023-05-06T04:00:19.345Z,100.00
2023-05-06T04:03:28.433Z,100.00
2023-05-06T04:06:36.600Z,100.00
2023-05-06T04:10:04.420Z,100.00
2023-05-06T04:13:28.605Z,100.00
2023-05-06T04:16:56.433Z,99.92
2023-05-06T04:20:05.582Z,100.00
2023-05-06T04:23:14.271Z,100.00
2023-05-06T04:25:42.637Z,100.00
2023-05-06T04:29:10.541Z,100.00
2023-05-06T04:32:34.115Z,99.26
2023-05-06T04:35:23.676Z,100.00
2023-05-06T04:38:51.373Z,99.96
2023-05-06T04:42:19.122Z,100.00
2023-05-06T04:45:46.993Z,99.48
2023-05-06T04:49:14.821Z,98.23
2023-05-06T04:52:42.827Z,98.29
2023-05-06T04:55:51.514Z,97.12
2023-05-06T04:59:19.369Z,98.09
2023-05-06T05:02:09.377Z,99.07
2023-05-06T05:05:37.367Z,97.65
2023-05-06T05:09:05.099Z,97.91
2023-05-06T05:12:33.353Z,98.05
2023-05-06T05:15:25.720Z,97.48
2023-05-06T05:18:53.435Z,97.00
2023-05-06T05:22:21.274Z,95.60
2023-05-06T05:25:49.027Z,94.98
2023-05-06T05:29:25.666Z,94.56
2023-05-06T05:32:53.755Z,94.80
2023-05-06T05:36:02.290Z,94.73
2023-05-06T05:39:30.329Z,95.21
2023-05-06T05:42:58.849Z,93.47
2023-05-06T05:46:09.768Z,92.56
2023-05-06T05:49:18.786Z,91.72
2023-05-06T05:52:46.566Z,91.59
2023-05-06T05:55:56.384Z,90.15
2023-05-06T05:59:24.060Z,89.30
2023-05-06T06:02:33.091Z,89.97
2023-05-06T06:05:41.901Z,91.56
2023-05-06T06:09:09.823Z,90.25
2023-05-06T06:11:58.964Z,88.32
2023-05-06T06:15:27.180Z,86.76
2023-05-06T06:18:35.315Z,84.97
2023-05-06T06:22:03.262Z,83.76
2023-05-06T06:25:31.380Z,83.89
2023-05-06T06:28:39.851Z,83.31
2023-05-06T06:32:08.030Z,81.68
2023-05-06T06:35:35.972Z,80.87
2023-05-06T06:38:24.811Z,78.51
2023-05-06T06:41:52.878Z,77.51
2023-05-06T06:45:20.903Z,76.57
2023-05-06T06:48:48.846Z,74.27
2023-05-06T06:51:58.578Z,73.94
2023-05-06T06:55:07.430Z,71.82
2023-05-06T06:58:16.319Z,73.62
2023-05-06T07:01:44.431Z,73.76
2023-05-06T07:05:12.469Z,72.02
2023-05-06T07:08:41.215Z,72.32
2023-05-06T07:12:09.811Z,70.28
2023-05-06T07:15:37.809Z,67.89
2023-05-06T07:19:06.927Z,67.69
2023-05-06T07:22:35.530Z,67.88
2023-05-06T07:26:03.587Z,66.17
2023-05-06T07:29:31.464Z,63.90
2023-05-06T07:32:59.189Z,64.65
2023-05-06T07:36:27.062Z,65.15
2023-05-06T07:39:54.987Z,64.30
2023-05-06T07:43:23.205Z,62.24
2023-05-06T07:46:51.135Z,61.62
2023-05-06T07:49:39.886Z,61.98
2023-05-06T07:52:48.328Z,62.68
2023-05-06T07:56:16.197Z,61.91
2023-05-06T07:59:45.340Z,61.29
2023-05-06T08:03:00.686Z,61.65
2023-05-06T08:06:28.484Z,60.13
2023-05-06T08:09:56.377Z,58.79
2023-05-06T08:13:24.230Z,58.85
2023-05-06T08:16:35.894Z,59.66
2023-05-06T08:19:25.225Z,57.76
2023-05-06T08:22:53.158Z,56.38
2023-05-06T08:26:20.954Z,57.15
2023-05-06T08:29:48.779Z,56.15
2023-05-06T08:32:57.740Z,56.12
2023-05-06T08:36:25.713Z,56.31
2023-05-06T08:39:34.825Z,56.58
2023-05-06T08:43:02.535Z,54.02
2023-05-06T08:46:30.438Z,53.48
2023-05-06T08:49:58.372Z,54.19
2023-05-06T08:53:26.373Z,54.85
2023-05-06T08:56:54.363Z,53.24
2023-05-06T09:00:22.236Z,53.28
2023-05-06T09:03:31.266Z,53.47
2023-05-06T09:06:59.151Z,52.54
2023-05-06T09:10:07.204Z,53.05
2023-05-06T09:13:35.053Z,52.39
2023-05-06T09:16:44.029Z,52.28
2023-05-06T09:20:11.836Z,52.36
2023-05-06T09:23:39.873Z,53.17
2023-05-06T09:27:10.393Z,52.46
2023-05-06T09:30:36.240Z,51.92
2023-05-06T09:33:44.790Z,50.04
2023-05-06T09:37:12.781Z,49.92
2023-05-06T09:40:41.580Z,48.50
2023-05-06T09:44:09.453Z,47.69
2023-05-06T09:47:37.221Z,47.93
2023-05-06T09:51:04.765Z,48.09
2023-05-06T09:54:32.556Z,48.39
2023-05-06T09:58:00.488Z,46.84
2023-05-06T10:01:35.937Z,47.99
2023-05-06T10:04:56.273Z,45.59
2023-05-06T10:08:23.891Z,46.13
2023-05-06T10:11:51.894Z,45.21
2023-05-06T10:15:20.014Z,44.59
2023-05-06T10:18:47.793Z,45.56
2023-05-06T10:22:15.873Z,44.84
2023-05-06T10:25:43.564Z,43.69
2023-05-06T10:29:11.457Z,43.52
2023-05-06T10:32:39.341Z,43.74
2023-05-06T10:36:07.295Z,44.90
2023-05-06T10:39:34.980Z,45.08
2023-05-06T10:43:03.047Z,45.44
2023-05-06T10:46:13.060Z,44.30
2023-05-06T10:49:40.699Z,43.52
2023-05-06T10:53:08.469Z,42.98
2023-05-06T10:56:18.550Z,43.48
2023-05-06T10:59:46.657Z,43.41
2023-05-06T11:03:14.622Z,43.68
2023-05-06T11:06:43.341Z,43.30
2023-05-06T11:10:11.158Z,41.28
2023-05-06T11:13:39.320Z,39.77
2023-05-06T11:17:07.272Z,38.56
2023-05-06T11:19:35.816Z,39.14
2023-05-06T11:23:03.701Z,39.26
2023-05-06T11:26:31.694Z,38.81
2023-05-06T11:29:55.740Z,39.02
2023-05-06T11:33:23.568Z,39.61
2023-05-06T11:36:31.981Z,40.04
2023-05-06T11:39:41.866Z,37.16
2023-05-06T11:42:52.076Z,35.91
2023-05-06T11:46:00.283Z,35.28
2023-05-06T11:49:28.158Z,34.93
2023-05-06T11:52:56.248Z,36.46
2023-05-06T11:56:24.037Z,35.61
2023-05-06T11:59:51.771Z,34.70
2023-05-06T12:03:00.190Z,33.97
2023-05-06T12:06:12.089Z,33.79
2023-05-06T12:09:00.957Z,34.69
2023-05-06T12:12:28.857Z,35.28
2023-05-06T12:15:24.838Z,34.44
2023-05-06T12:18:13.800Z,35.17
2023-05-06T12:20:41.785Z,35.70
2023-05-06T12:23:37.527Z,35.62
2023-05-06T12:27:05.804Z,35.10
2023-05-06T12:30:33.883Z,33.92
2023-05-06T12:34:02.139Z,35.00
2023-05-06T12:37:30.064Z,35.53
2023-05-06T12:40:58.134Z,35.04
2023-05-06T12:44:06.381Z,34.59
2023-05-06T12:47:14.321Z,33.19
2023-05-06T12:49:52.282Z,32.48
2023-05-06T12:52:42.592Z,31.30
2023-05-06T12:55:46.190Z,30.52
2023-05-06T12:58:39.773Z,30.46
2023-05-06T13:01:10.246Z,30.77
2023-05-06T13:04:19.747Z,30.80
2023-05-06T13:07:12.222Z,31.41
2023-05-06T13:10:00.212Z,31.32
2023-05-06T13:13:27.978Z,31.74
2023-05-06T13:16:12.288Z,32.30
2023-05-06T13:19:40.091Z,33.00
2023-05-06T13:22:33.761Z,33.41
2023-05-06T13:26:04.893Z,33.48
2023-05-06T13:29:07.411Z,33.65
2023-05-06T13:31:55.562Z,34.26
2023-05-06T13:35:05.685Z,35.42
2023-05-06T13:38:33.613Z,36.18
2023-05-06T13:41:43.348Z,36.50
2023-05-06T13:44:42.360Z,36.69
2023-05-06T13:48:15.506Z,36.21
2023-05-06T13:51:23.924Z,35.63
2023-05-06T13:54:24.478Z,35.92
2023-05-06T13:57:34.029Z,36.45
2023-05-06T14:00:24.531Z,36.40
2023-05-06T14:03:52.376Z,35.94
2023-05-06T14:07:20.485Z,35.62
2023-05-06T14:10:28.753Z,34.92
2023-05-06T14:12:57.495Z,34.05
2023-05-06T14:16:06.448Z,33.67
2023-05-06T14:19:34.959Z,32.73
2023-05-06T14:23:02.762Z,32.07
2023-05-06T14:26:30.511Z,32.11
2023-05-06T14:29:42.404Z,32.28
2023-05-06T14:32:30.658Z,32.45
2023-05-06T14:35:18.616Z,32.74
2023-05-06T14:38:49.351Z,32.72
2023-05-06T14:41:38.828Z,32.38
2023-05-06T14:45:06.857Z,31.47
2023-05-06T14:48:15.902Z,31.47
2023-05-06T14:51:44.095Z,30.59
2023-05-06T14:55:12.726Z,30.45
2023-05-06T14:58:40.415Z,29.78
2023-05-06T15:02:08.697Z,29.01
2023-05-06T15:04:38.652Z,28.56
2023-05-06T15:08:06.864Z,28.74
2023-05-06T15:11:15.264Z,28.75
2023-05-06T15:14:23.343Z,28.29
2023-05-06T15:17:39.753Z,27.90
2023-05-06T15:21:07.732Z,27.84
2023-05-06T15:24:36.148Z,28.26
2023-05-06T15:28:04.282Z,28.22
2023-05-06T15:31:12.780Z,27.62
2023-05-06T15:34:40.836Z,26.94
2023-05-06T15:38:09.733Z,26.54
2023-05-06T15:41:37.819Z,26.37
2023-05-06T15:44:45.914Z,25.76
2023-05-06T15:47:54.088Z,24.96
2023-05-06T15:51:22.061Z,25.09
2023-05-06T15:54:50.341Z,25.26
2023-05-06T15:58:00.407Z,25.61
2023-05-06T16:01:11.418Z,26.06
2023-05-06T16:04:40.668Z,26.74
2023-05-06T16:07:49.462Z,27.08
2023-05-06T16:11:17.362Z,27.43
2023-05-06T16:14:07.117Z,28.06
2023-05-06T16:17:04.167Z,28.47
2023-05-06T16:20:12.814Z,29.22
2023-05-06T16:23:21.243Z,30.07
2023-05-06T16:26:49.088Z,30.64
2023-05-06T16:29:38.990Z,31.20
2023-05-06T16:33:07.159Z,31.08
2023-05-06T16:36:35.304Z,30.54
2023-05-06T16:40:06.814Z,29.82
2023-05-06T16:42:57.369Z,29.78
2023-05-06T16:45:25.188Z,28.40
2023-05-06T16:48:13.195Z,27.69
2023-05-06T16:51:16.446Z,27.17
2023-05-06T16:53:47.498Z,26.92
2023-05-06T16:56:16.648Z,25.95
2023-05-06T16:59:28.360Z,25.93
2023-05-06T17:02:20.128Z,26.29
2023-05-06T17:05:12.364Z,26.96
2023-05-06T17:08:20.328Z,27.33
2023-05-06T17:11:24.040Z,28.04
2023-05-06T17:14:12.444Z,29.00
2023-05-06T17:17:40.726Z,30.30
2023-05-06T17:20:55.645Z,31.60
2023-05-06T17:24:05.223Z,32.18
2023-05-06T17:27:33.208Z,33.75
2023-05-06T17:30:01.232Z,34.10
2023-05-06T17:32:59.425Z,34.59
2023-05-06T17:36:22.898Z,34.83
2023-05-06T17:39:50.843Z,36.08
2023-05-06T17:43:19.513Z,37.08
2023-05-06T17:46:35.498Z,37.54
2023-05-06T17:49:33.128Z,37.66
2023-05-06T17:52:42.014Z,38.33
2023-05-06T17:55:51.089Z,39.13
2023-05-06T17:58:49.451Z,39.67
2023-05-06T18:01:58.629Z,41.32
2023-05-06T18:05:26.668Z,40.90
2023-05-06T18:08:54.685Z,42.22
2023-05-06T18:12:22.468Z,43.11
2023-05-06T18:15:31.346Z,43.10
2023-05-06T18:18:59.265Z,43.74
2023-05-06T18:22:08.231Z,44.43
2023-05-06T18:25:36.174Z,45.45
2023-05-06T18:29:04.064Z,47.29
2023-05-06T18:32:32.054Z,47.39
2023-05-06T18:36:00.037Z,48.44
2023-05-06T18:38:49.598Z,48.50
2023-05-06T18:42:05.635Z,49.07
2023-05-06T18:44:54.534Z,49.53
2023-05-06T18:48:03.213Z,50.31
2023-05-06T18:51:15.143Z,48.54
2023-05-06T18:54:26.822Z,50.16
2023-05-06T18:57:23.477Z,51.06
2023-05-06T19:00:51.497Z,50.60
2023-05-06T19:04:07.326Z,50.73
2023-05-06T19:07:16.211Z,50.48
2023-05-06T19:10:43.564Z,50.83
2023-05-06T19:13:55.390Z,52.32
2023-05-06T19:16:45.867Z,52.47
2023-05-06T19:20:14.069Z,52.72
2023-05-06T19:23:18.345Z,53.00
2023-05-06T19:26:10.954Z,53.48
2023-05-06T19:29:00.288Z,53.36
2023-05-06T19:32:28.329Z,53.73
2023-05-06T19:35:36.305Z,54.26
2023-05-06T19:39:04.399Z,54.20
2023-05-06T19:42:12.457Z,54.64
2023-05-06T19:45:40.392Z,54.47
2023-05-06T19:48:50.495Z,54.46
2023-05-06T19:52:18.371Z,54.35
2023-05-06T19:55:46.293Z,54.15
2023-05-06T19:59:14.180Z,54.17
2023-05-06T20:02:42.280Z,53.99
2023-05-06T20:06:09.928Z,53.84
2023-05-06T20:09:37.814Z,53.87
2023-05-06T20:13:05.654Z,53.90
2023-05-06T20:16:33.361Z,54.39
2023-05-06T20:20:02.792Z,54.12
2023-05-06T20:23:29.230Z,54.44
2023-05-06T20:26:56.948Z,54.38
2023-05-06T20:30:24.792Z,53.57
2023-05-06T20:33:52.622Z,54.76
2023-05-06T20:37:20.551Z,55.31
2023-05-06T20:40:48.179Z,55.26
2023-05-06T20:44:16.022Z,55.19
2023-05-06T20:47:43.794Z,55.39
2023-05-06T20:51:11.567Z,56.56
2023-05-06T20:54:39.564Z,56.05
2023-05-06T20:58:07.173Z,56.17
2023-05-06T21:01:14.962Z,57.05
2023-05-06T21:04:43.145Z,56.41
2023-05-06T21:08:11.052Z,55.45
2023-05-06T21:11:38.956Z,56.50
2023-05-06T21:15:07.016Z,57.25
2023-05-06T21:18:34.860Z,56.43
2023-05-06T21:22:05.040Z,57.74
2023-05-06T21:25:13.862Z,57.91
2023-05-06T21:28:41.674Z,57.87
2023-05-06T21:32:09.416Z,58.70
2023-05-06T21:35:37.100Z,58.20
2023-05-06T21:38:46.552Z,59.46
2023-05-06T21:42:14.336Z,56.74
2023-05-06T21:45:42.682Z,60.48
2023-05-06T21:49:10.535Z,60.96
2023-05-06T21:52:19.200Z,61.54
2023-05-06T21:55:47.208Z,61.38
2023-05-06T21:59:14.945Z,61.04
2023-05-06T22:02:42.867Z,59.26
2023-05-06T22:06:10.624Z,60.25
2023-05-06T22:09:38.633Z,59.34
2023-05-06T22:13:06.651Z,58.96
2023-05-06T22:15:39.235Z,59.42
2023-05-06T22:19:07.122Z,59.81
2023-05-06T22:22:16.047Z,60.11
2023-05-06T22:25:43.822Z,59.50
2023-05-06T22:28:15.553Z,59.90
2023-05-06T22:31:43.714Z,59.48
2023-05-06T22:35:10.223Z,59.00
2023-05-06T22:37:42.971Z,58.82
2023-05-06T22:40:12.733Z,59.30
2023-05-06T22:43:22.968Z,58.55
2023-05-06T22:45:55.214Z,58.87
2023-05-06T22:49:11.029Z,59.36
2023-05-06T22:52:20.540Z,60.05
2023-05-06T22:55:38.080Z,59.68
2023-05-06T22:59:05.181Z,60.31
2023-05-06T23:02:32.941Z,60.50
2023-05-06T23:06:00.880Z,61.63
2023-05-06T23:09:28.815Z,60.92
2023-05-06T23:12:38.587Z,60.87
2023-05-06T23:16:06.332Z,60.62
2023-05-06T23:19:34.297Z,61.93
2023-05-06T23:23:02.106Z,60.65
2023-05-06T23:25:51.649Z,61.45
2023-05-06T23:29:19.541Z,61.99
2023-05-06T23:32:47.304Z,61.54
2023-05-06T23:35:56.195Z,62.70
2023-05-06T23:38:52.798Z,62.03
2023-05-06T23:42:20.530Z,62.68
2023-05-06T23:45:28.844Z,62.63
2023-05-06T23:48:56.614Z,63.63
2023-05-06T23:52:05.487Z,64.03
2023-05-06T23:55:33.135Z,63.54
2023-05-06T23:58:41.972Z,64.26
